sensor_id;sensor_type;location;lat;lon;timestamp;temperature;humidity
24252;DHT22;12380;51.118;4.176;2023-04-24T00:02:16;9.60;99.90
24252;DHT22;12380;51.118;4.176;2023-04-24T00:04:42;9.60;99.90
24252;DHT22;12380;51.118;4.176;2023-04-24T00:07:10;9.70;99.90
24252;DHT22;12380;51.118;4.176;2023-04-24T00:09:35;9.70;99.90
24252;DHT22;12380;51.118;4.176;2023-04-24T00:12:01;9.70;99.90
24252;DHT22;12380;51.118;4.176;2023-04-24T00:14:30;9.60;99.90
24252;DHT22;12380;51.118;4.176;2023-04-24T00:16:55;9.70;99.90
24252;DHT22;12380;51.118;4.176;2023-04-24T00:19:21;9.70;99.90
24252;DHT22;12380;51.118;4.176;2023-04-24T00:21:47;9.70;99.90
24252;DHT22;12380;51.118;4.176;2023-04-24T00:24:18;9.60;99.90
24252;DHT22;12380;51.118;4.176;2023-04-24T00:26:46;9.60;99.90
24252;DHT22;12380;51.118;4.176;2023-04-24T00:29:11;9.60;99.90
24252;DHT22;12380;51.118;4.176;2023-04-24T00:31:37;9.60;99.90
24252;DHT22;12380;51.118;4.176;2023-04-24T00:34:03;9.60;99.90
24252;DHT22;12380;51.118;4.176;2023-04-24T00:36:29;9.50;99.90
24252;DHT22;12380;51.118;4.176;2023-04-24T00:38:56;9.50;99.90
24252;DHT22;12380;51.118;4.176;2023-04-24T00:41:21;9.60;99.90
24252;DHT22;12380;51.118;4.176;2023-04-24T00:43:47;9.60;99.90
24252;DHT22;12380;51.118;4.176;2023-04-24T00:46:13;9.50;99.90
24252;DHT22;12380;51.118;4.176;2023-04-24T00:48:39;9.50;99.90
24252;DHT22;12380;51.118;4.176;2023-04-24T00:51:07;9.50;99.90
24252;DHT22;12380;51.118;4.176;2023-04-24T00:53:33;9.50;99.90
24252;DHT22;12380;51.118;4.176;2023-04-24T00:55:58;9.60;99.90
24252;DHT22;12380;51.118;4.176;2023-04-24T00:58:25;9.50;99.90
24252;DHT22;12380;51.118;4.176;2023-04-24T01:00:51;9.50;99.90
24252;DHT22;12380;51.118;4.176;2023-04-24T01:03:21;9.60;99.90
24252;DHT22;12380;51.118;4.176;2023-04-24T01:05:48;9.60;99.90
24252;DHT22;12380;51.118;4.176;2023-04-24T01:08:14;9.50;99.90
24252;DHT22;12380;51.118;4.176;2023-04-24T01:10:40;9.60;99.90
24252;DHT22;12380;51.118;4.176;2023-04-24T01:13:07;9.50;99.90
24252;DHT22;12380;51.118;4.176;2023-04-24T01:15:33;9.40;99.90
24252;DHT22;12380;51.118;4.176;2023-04-24T01:17:58;9.40;99.90
24252;DHT22;12380;51.118;4.176;2023-04-24T01:20:24;9.30;99.90
24252;DHT22;12380;51.118;4.176;2023-04-24T01:22:51;9.30;99.90
24252;DHT22;12380;51.118;4.176;2023-04-24T01:25:17;9.40;99.90
24252;DHT22;12380;51.118;4.176;2023-04-24T01:27:42;9.50;99.90
24252;DHT22;12380;51.118;4.176;2023-04-24T01:30:08;9.50;99.90
24252;DHT22;12380;51.118;4.176;2023-04-24T01:32:34;9.40;99.90
24252;DHT22;12380;51.118;4.176;2023-04-24T01:35:00;9.40;99.90
24252;DHT22;12380;51.118;4.176;2023-04-24T01:37:27;9.40;99.90
24252;DHT22;12380;51.118;4.176;2023-04-24T01:39:52;9.40;99.90
24252;DHT22;12380;51.118;4.176;2023-04-24T01:42:18;9.40;99.90
24252;DHT22;12380;51.118;4.176;2023-04-24T01:44:48;9.30;99.90
24252;DHT22;12380;51.118;4.176;2023-04-24T01:47:14;9.40;99.90
24252;DHT22;12380;51.118;4.176;2023-04-24T01:49:39;9.40;99.90
24252;DHT22;12380;51.118;4.176;2023-04-24T01:52:05;9.50;99.90
24252;DHT22;12380;51.118;4.176;2023-04-24T01:54:31;9.40;99.90
24252;DHT22;12380;51.118;4.176;2023-04-24T01:56:56;9.30;99.90
24252;DHT22;12380;51.118;4.176;2023-04-24T01:59:22;9.30;99.90
24252;DHT22;12380;51.118;4.176;2023-04-24T02:01:51;9.30;99.90
24252;DHT22;12380;51.118;4.176;2023-04-24T02:04:18;9.10;99.90
24252;DHT22;12380;51.118;4.176;2023-04-24T02:06:44;9.10;99.90
24252;DHT22;12380;51.118;4.176;2023-04-24T02:09:09;9.10;99.90
24252;DHT22;12380;51.118;4.176;2023-04-24T02:11:36;9.00;99.90
24252;DHT22;12380;51.118;4.176;2023-04-24T02:14:01;9.00;99.90
24252;DHT22;12380;51.118;4.176;2023-04-24T02:16:28;8.90;99.90
24252;DHT22;12380;51.118;4.176;2023-04-24T02:18:55;8.90;99.90
24252;DHT22;12380;51.118;4.176;2023-04-24T02:21:21;8.90;99.90
24252;DHT22;12380;51.118;4.176;2023-04-24T02:23:46;8.80;99.90
24252;DHT22;12380;51.118;4.176;2023-04-24T02:26:12;8.90;99.90
24252;DHT22;12380;51.118;4.176;2023-04-24T02:28:40;8.80;99.90
24252;DHT22;12380;51.118;4.176;2023-04-24T02:31:06;8.90;99.90
24252;DHT22;12380;51.118;4.176;2023-04-24T02:33:31;8.80;99.90
24252;DHT22;12380;51.118;4.176;2023-04-24T02:35:57;8.80;99.90
24252;DHT22;12380;51.118;4.176;2023-04-24T02:38:25;8.80;99.90
24252;DHT22;12380;51.118;4.176;2023-04-24T02:40:50;8.80;99.90
24252;DHT22;12380;51.118;4.176;2023-04-24T02:43:16;8.90;99.90
24252;DHT22;12380;51.118;4.176;2023-04-24T02:45:42;8.90;99.90
24252;DHT22;12380;51.118;4.176;2023-04-24T02:48:09;8.90;99.90
24252;DHT22;12380;51.118;4.176;2023-04-24T02:50:35;8.90;99.90
24252;DHT22;12380;51.118;4.176;2023-04-24T02:53:01;8.90;99.90
24252;DHT22;12380;51.118;4.176;2023-04-24T02:55:26;8.90;99.90
24252;DHT22;12380;51.118;4.176;2023-04-24T02:57:52;9.00;99.90
24252;DHT22;12380;51.118;4.176;2023-04-24T03:00:17;8.90;99.90
24252;DHT22;12380;51.118;4.176;2023-04-24T03:02:43;8.90;99.90
24252;DHT22;12380;51.118;4.176;2023-04-24T03:05:08;8.90;99.90
24252;DHT22;12380;51.118;4.176;2023-04-24T03:07:37;8.90;99.90
24252;DHT22;12380;51.118;4.176;2023-04-24T03:10:03;8.90;99.90
24252;DHT22;12380;51.118;4.176;2023-04-24T03:12:28;8.90;99.90
24252;DHT22;12380;51.118;4.176;2023-04-24T03:14:54;8.90;99.90
24252;DHT22;12380;51.118;4.176;2023-04-24T03:17:20;9.00;99.90
24252;DHT22;12380;51.118;4.176;2023-04-24T03:19:45;8.90;99.90
24252;DHT22;12380;51.118;4.176;2023-04-24T03:22:14;9.00;99.90
24252;DHT22;12380;51.118;4.176;2023-04-24T03:24:40;9.10;99.90
24252;DHT22;12380;51.118;4.176;2023-04-24T03:27:05;9.10;99.90
24252;DHT22;12380;51.118;4.176;2023-04-24T03:29:31;8.90;99.90
24252;DHT22;12380;51.118;4.176;2023-04-24T03:31:56;8.90;99.90
24252;DHT22;12380;51.118;4.176;2023-04-24T03:34:22;8.90;99.90
24252;DHT22;12380;51.118;4.176;2023-04-24T03:36:47;8.90;99.90
24252;DHT22;12380;51.118;4.176;2023-04-24T03:39:13;8.90;99.90
24252;DHT22;12380;51.118;4.176;2023-04-24T03:41:41;8.90;99.90
24252;DHT22;12380;51.118;4.176;2023-04-24T03:44:06;8.80;99.90
24252;DHT22;12380;51.118;4.176;2023-04-24T03:46:32;8.80;99.90
24252;DHT22;12380;51.118;4.176;2023-04-24T03:49:00;8.80;99.90
24252;DHT22;12380;51.118;4.176;2023-04-24T03:51:26;8.70;99.90
24252;DHT22;12380;51.118;4.176;2023-04-24T03:53:53;8.60;99.90
24252;DHT22;12380;51.118;4.176;2023-04-24T03:56:18;8.60;99.90
24252;DHT22;12380;51.118;4.176;2023-04-24T03:58:46;8.70;99.90
24252;DHT22;12380;51.118;4.176;2023-04-24T04:01:12;8.60;99.90
24252;DHT22;12380;51.118;4.176;2023-04-24T04:03:38;8.60;99.90
24252;DHT22;12380;51.118;4.176;2023-04-24T04:06:04;8.60;99.90
24252;DHT22;12380;51.118;4.176;2023-04-24T04:08:29;8.70;99.90
24252;DHT22;12380;51.118;4.176;2023-04-24T04:10:55;8.70;99.90
24252;DHT22;12380;51.118;4.176;2023-04-24T04:13:21;8.60;99.90
24252;DHT22;12380;51.118;4.176;2023-04-24T04:15:46;8.60;99.90
24252;DHT22;12380;51.118;4.176;2023-04-24T04:18:15;8.60;99.90
24252;DHT22;12380;51.118;4.176;2023-04-24T04:20:40;8.70;99.90
24252;DHT22;12380;51.118;4.176;2023-04-24T04:23:06;8.70;99.90
24252;DHT22;12380;51.118;4.176;2023-04-24T04:25:32;8.50;99.90
24252;DHT22;12380;51.118;4.176;2023-04-24T04:27:58;8.50;99.90
24252;DHT22;12380;51.118;4.176;2023-04-24T04:30:24;8.50;99.90
24252;DHT22;12380;51.118;4.176;2023-04-24T04:32:53;8.50;99.90
24252;DHT22;12380;51.118;4.176;2023-04-24T04:35:18;8.50;99.90
24252;DHT22;12380;51.118;4.176;2023-04-24T04:37:44;8.50;99.90
24252;DHT22;12380;51.118;4.176;2023-04-24T04:40:10;8.40;99.90
24252;DHT22;12380;51.118;4.176;2023-04-24T04:42:37;8.40;99.90
24252;DHT22;12380;51.118;4.176;2023-04-24T04:45:07;8.40;99.90
24252;DHT22;12380;51.118;4.176;2023-04-24T04:47:34;8.50;99.90
24252;DHT22;12380;51.118;4.176;2023-04-24T04:50:00;8.50;99.90
24252;DHT22;12380;51.118;4.176;2023-04-24T04:52:25;8.50;99.90
24252;DHT22;12380;51.118;4.176;2023-04-24T04:54:52;8.60;99.90
24252;DHT22;12380;51.118;4.176;2023-04-24T04:57:17;8.50;99.90
24252;DHT22;12380;51.118;4.176;2023-04-24T04:59:43;8.40;99.90
24252;DHT22;12380;51.118;4.176;2023-04-24T05:02:09;8.30;99.90
24252;DHT22;12380;51.118;4.176;2023-04-24T05:04:34;8.40;99.90
24252;DHT22;12380;51.118;4.176;2023-04-24T05:07:00;8.40;99.90
24252;DHT22;12380;51.118;4.176;2023-04-24T05:09:25;8.40;99.90
24252;DHT22;12380;51.118;4.176;2023-04-24T05:11:52;8.40;99.90
24252;DHT22;12380;51.118;4.176;2023-04-24T05:14:20;8.50;99.90
24252;DHT22;12380;51.118;4.176;2023-04-24T05:16:47;8.40;99.90
24252;DHT22;12380;51.118;4.176;2023-04-24T05:19:15;8.40;99.90
24252;DHT22;12380;51.118;4.176;2023-04-24T05:21:41;8.50;99.90
24252;DHT22;12380;51.118;4.176;2023-04-24T05:24:06;8.50;99.90
24252;DHT22;12380;51.118;4.176;2023-04-24T05:26:32;8.50;99.90
24252;DHT22;12380;51.118;4.176;2023-04-24T05:28:58;8.40;99.90
24252;DHT22;12380;51.118;4.176;2023-04-24T05:31:23;8.60;99.90
24252;DHT22;12380;51.118;4.176;2023-04-24T05:33:49;8.60;99.90
24252;DHT22;12380;51.118;4.176;2023-04-24T05:36:17;8.80;99.90
24252;DHT22;12380;51.118;4.176;2023-04-24T05:38:42;8.60;99.90
24252;DHT22;12380;51.118;4.176;2023-04-24T05:41:08;8.60;99.90
24252;DHT22;12380;51.118;4.176;2023-04-24T05:43:33;8.50;99.90
24252;DHT22;12380;51.118;4.176;2023-04-24T05:45:59;8.50;99.90
24252;DHT22;12380;51.118;4.176;2023-04-24T05:48:25;8.60;99.90
24252;DHT22;12380;51.118;4.176;2023-04-24T05:50:51;8.40;99.90
24252;DHT22;12380;51.118;4.176;2023-04-24T05:53:18;8.40;99.90
24252;DHT22;12380;51.118;4.176;2023-04-24T05:55:43;8.50;99.90
24252;DHT22;12380;51.118;4.176;2023-04-24T05:58:09;8.50;99.90
24252;DHT22;12380;51.118;4.176;2023-04-24T06:00:37;8.50;99.90
24252;DHT22;12380;51.118;4.176;2023-04-24T06:03:05;8.70;99.90
24252;DHT22;12380;51.118;4.176;2023-04-24T06:05:30;8.60;99.90
24252;DHT22;12380;51.118;4.176;2023-04-24T06:07:59;8.60;99.90
24252;DHT22;12380;51.118;4.176;2023-04-24T06:10:25;8.60;99.90
24252;DHT22;12380;51.118;4.176;2023-04-24T06:12:50;8.60;99.90
24252;DHT22;12380;51.118;4.176;2023-04-24T06:15:16;8.60;99.90
24252;DHT22;12380;51.118;4.176;2023-04-24T06:17:41;8.60;99.90
24252;DHT22;12380;51.118;4.176;2023-04-24T06:20:07;8.60;99.90
24252;DHT22;12380;51.118;4.176;2023-04-24T06:22:33;8.70;99.90
24252;DHT22;12380;51.118;4.176;2023-04-24T06:24:59;8.60;99.90
24252;DHT22;12380;51.118;4.176;2023-04-24T06:27:25;8.70;99.90
24252;DHT22;12380;51.118;4.176;2023-04-24T06:29:50;8.70;99.90
24252;DHT22;12380;51.118;4.176;2023-04-24T06:32:21;8.70;99.90
24252;DHT22;12380;51.118;4.176;2023-04-24T06:34:46;8.70;99.90
24252;DHT22;12380;51.118;4.176;2023-04-24T06:37:12;8.70;99.90
24252;DHT22;12380;51.118;4.176;2023-04-24T06:39:37;8.60;99.90
24252;DHT22;12380;51.118;4.176;2023-04-24T06:42:03;8.70;99.90
24252;DHT22;12380;51.118;4.176;2023-04-24T06:44:28;8.70;99.90
24252;DHT22;12380;51.118;4.176;2023-04-24T06:46:54;8.70;99.90
24252;DHT22;12380;51.118;4.176;2023-04-24T06:49:20;8.80;99.90
24252;DHT22;12380;51.118;4.176;2023-04-24T06:51:46;8.80;99.90
24252;DHT22;12380;51.118;4.176;2023-04-24T06:54:13;8.80;99.90
24252;DHT22;12380;51.118;4.176;2023-04-24T06:56:39;9.00;99.90
24252;DHT22;12380;51.118;4.176;2023-04-24T06:59:04;8.90;99.90
24252;DHT22;12380;51.118;4.176;2023-04-24T07:01:30;8.70;99.90
24252;DHT22;12380;51.118;4.176;2023-04-24T07:03:55;8.70;99.90
24252;DHT22;12380;51.118;4.176;2023-04-24T07:06:21;8.70;99.90
24252;DHT22;12380;51.118;4.176;2023-04-24T07:08:48;8.70;99.90
24252;DHT22;12380;51.118;4.176;2023-04-24T07:11:13;8.60;99.90
24252;DHT22;12380;51.118;4.176;2023-04-24T07:13:39;8.70;99.90
24252;DHT22;12380;51.118;4.176;2023-04-24T07:16:07;8.70;99.90
24252;DHT22;12380;51.118;4.176;2023-04-24T07:18:33;8.60;99.90
24252;DHT22;12380;51.118;4.176;2023-04-24T07:20:59;8.70;99.90
24252;DHT22;12380;51.118;4.176;2023-04-24T07:23:24;8.80;99.90
24252;DHT22;12380;51.118;4.176;2023-04-24T07:25:50;8.90;99.90
24252;DHT22;12380;51.118;4.176;2023-04-24T07:28:15;9.00;99.90
24252;DHT22;12380;51.118;4.176;2023-04-24T07:30:43;9.00;99.90
24252;DHT22;12380;51.118;4.176;2023-04-24T07:33:11;9.00;99.90
24252;DHT22;12380;51.118;4.176;2023-04-24T07:35:38;9.10;99.90
24252;DHT22;12380;51.118;4.176;2023-04-24T07:38:06;9.20;99.90
24252;DHT22;12380;51.118;4.176;2023-04-24T07:40:31;9.00;99.90
24252;DHT22;12380;51.118;4.176;2023-04-24T07:42:57;9.00;99.90
24252;DHT22;12380;51.118;4.176;2023-04-24T07:45:23;9.00;99.90
24252;DHT22;12380;51.118;4.176;2023-04-24T07:47:49;9.00;99.90
24252;DHT22;12380;51.118;4.176;2023-04-24T07:50:15;9.00;99.90
24252;DHT22;12380;51.118;4.176;2023-04-24T07:52:41;8.90;99.90
24252;DHT22;12380;51.118;4.176;2023-04-24T07:55:06;8.90;99.90
24252;DHT22;12380;51.118;4.176;2023-04-24T07:57:32;9.10;99.90
24252;DHT22;12380;51.118;4.176;2023-04-24T07:59:58;9.10;99.90
24252;DHT22;12380;51.118;4.176;2023-04-24T08:02:23;9.20;99.90
24252;DHT22;12380;51.118;4.176;2023-04-24T08:04:53;9.40;99.90
24252;DHT22;12380;51.118;4.176;2023-04-24T08:07:19;9.90;99.90
24252;DHT22;12380;51.118;4.176;2023-04-24T08:09:47;10.40;99.90
24252;DHT22;12380;51.118;4.176;2023-04-24T08:12:12;10.50;99.90
24252;DHT22;12380;51.118;4.176;2023-04-24T08:14:38;10.60;99.90
24252;DHT22;12380;51.118;4.176;2023-04-24T08:17:04;10.70;99.90
24252;DHT22;12380;51.118;4.176;2023-04-24T08:19:29;10.60;99.90
24252;DHT22;12380;51.118;4.176;2023-04-24T08:21:57;10.70;99.90
24252;DHT22;12380;51.118;4.176;2023-04-24T08:24:25;10.60;99.90
24252;DHT22;12380;51.118;4.176;2023-04-24T08:26:51;10.40;99.90
24252;DHT22;12380;51.118;4.176;2023-04-24T08:29:19;10.30;99.90
24252;DHT22;12380;51.118;4.176;2023-04-24T08:31:44;10.00;99.90
24252;DHT22;12380;51.118;4.176;2023-04-24T08:34:10;10.00;99.90
24252;DHT22;12380;51.118;4.176;2023-04-24T08:36:38;9.60;99.90
24252;DHT22;12380;51.118;4.176;2023-04-24T08:39:06;9.60;99.90
24252;DHT22;12380;51.118;4.176;2023-04-24T08:41:32;9.80;99.90
24252;DHT22;12380;51.118;4.176;2023-04-24T08:43:58;10.00;99.90
24252;DHT22;12380;51.118;4.176;2023-04-24T08:46:24;10.00;99.90
24252;DHT22;12380;51.118;4.176;2023-04-24T08:48:51;10.00;99.90
24252;DHT22;12380;51.118;4.176;2023-04-24T08:51:17;10.00;99.90
24252;DHT22;12380;51.118;4.176;2023-04-24T08:53:43;10.10;99.90
24252;DHT22;12380;51.118;4.176;2023-04-24T08:56:08;10.50;99.90
24252;DHT22;12380;51.118;4.176;2023-04-24T08:58:34;10.90;99.90
24252;DHT22;12380;51.118;4.176;2023-04-24T09:01:03;12.10;99.90
24252;DHT22;12380;51.118;4.176;2023-04-24T09:03:29;12.90;99.90
24252;DHT22;12380;51.118;4.176;2023-04-24T09:05:56;13.70;99.90
24252;DHT22;12380;51.118;4.176;2023-04-24T09:08:23;13.60;99.90
24252;DHT22;12380;51.118;4.176;2023-04-24T09:10:49;13.30;99.90
24252;DHT22;12380;51.118;4.176;2023-04-24T09:13:15;13.70;99.90
24252;DHT22;12380;51.118;4.176;2023-04-24T09:15:42;13.30;99.90
24252;DHT22;12380;51.118;4.176;2023-04-24T09:18:07;12.60;99.90
24252;DHT22;12380;51.118;4.176;2023-04-24T09:20:33;12.30;99.90
24252;DHT22;12380;51.118;4.176;2023-04-24T09:23:01;12.10;99.90
24252;DHT22;12380;51.118;4.176;2023-04-24T09:25:33;12.30;99.90
24252;DHT22;12380;51.118;4.176;2023-04-24T09:28:04;12.20;99.90
24252;DHT22;12380;51.118;4.176;2023-04-24T09:30:31;12.20;99.90
24252;DHT22;12380;51.118;4.176;2023-04-24T09:33:09;11.60;99.90
24252;DHT22;12380;51.118;4.176;2023-04-24T09:35:35;11.40;99.90
24252;DHT22;12380;51.118;4.176;2023-04-24T09:38:00;11.30;99.90
24252;DHT22;12380;51.118;4.176;2023-04-24T09:40:26;11.30;99.90
24252;DHT22;12380;51.118;4.176;2023-04-24T09:42:53;11.30;99.90
24252;DHT22;12380;51.118;4.176;2023-04-24T09:45:19;11.60;99.90
24252;DHT22;12380;51.118;4.176;2023-04-24T09:47:45;11.80;99.90
24252;DHT22;12380;51.118;4.176;2023-04-24T09:52:39;11.50;99.90
24252;DHT22;12380;51.118;4.176;2023-04-24T09:55:10;11.30;99.90
24252;DHT22;12380;51.118;4.176;2023-04-24T09:57:40;11.30;99.90
24252;DHT22;12380;51.118;4.176;2023-04-24T10:00:12;11.50;99.90
24252;DHT22;12380;51.118;4.176;2023-04-24T10:02:37;12.00;99.90
24252;DHT22;12380;51.118;4.176;2023-04-24T10:05:05;12.00;99.90
24252;DHT22;12380;51.118;4.176;2023-04-24T10:07:32;12.00;99.90
24252;DHT22;12380;51.118;4.176;2023-04-24T10:09:58;11.60;99.90
24252;DHT22;12380;51.118;4.176;2023-04-24T10:12:27;11.50;99.90
24252;DHT22;12380;51.118;4.176;2023-04-24T10:14:54;11.30;99.90
24252;DHT22;12380;51.118;4.176;2023-04-24T10:17:20;11.10;99.90
24252;DHT22;12380;51.118;4.176;2023-04-24T10:19:46;11.00;99.90
24252;DHT22;12380;51.118;4.176;2023-04-24T10:22:12;10.90;99.90
24252;DHT22;12380;51.118;4.176;2023-04-24T10:24:41;10.80;99.90
24252;DHT22;12380;51.118;4.176;2023-04-24T10:27:07;11.00;99.90
24252;DHT22;12380;51.118;4.176;2023-04-24T10:29:33;11.50;99.90
24252;DHT22;12380;51.118;4.176;2023-04-24T10:32:01;11.90;99.90
24252;DHT22;12380;51.118;4.176;2023-04-24T10:34:26;12.00;99.90
24252;DHT22;12380;51.118;4.176;2023-04-24T10:36:52;12.20;99.90
24252;DHT22;12380;51.118;4.176;2023-04-24T10:39:22;12.30;99.90
24252;DHT22;12380;51.118;4.176;2023-04-24T10:41:49;12.20;99.90
24252;DHT22;12380;51.118;4.176;2023-04-24T10:44:15;12.10;99.90
24252;DHT22;12380;51.118;4.176;2023-04-24T10:46:45;11.90;99.90
24252;DHT22;12380;51.118;4.176;2023-04-24T10:49:11;11.90;99.90
24252;DHT22;12380;51.118;4.176;2023-04-24T10:59:51;11.80;99.90
24252;DHT22;12380;51.118;4.176;2023-04-24T11:02:17;12.30;99.90
24252;DHT22;12380;51.118;4.176;2023-04-24T11:04:43;12.10;99.90
24252;DHT22;12380;51.118;4.176;2023-04-24T11:07:09;12.60;99.90
24252;DHT22;12380;51.118;4.176;2023-04-24T11:09:35;12.60;99.90
24252;DHT22;12380;51.118;4.176;2023-04-24T11:12:11;12.70;99.90
24252;DHT22;12380;51.118;4.176;2023-04-24T11:20:00;14.20;99.90
24252;DHT22;12380;51.118;4.176;2023-04-24T11:22:26;13.70;99.90
24252;DHT22;12380;51.118;4.176;2023-04-24T11:24:53;12.90;99.90
24252;DHT22;12380;51.118;4.176;2023-04-24T11:27:20;12.90;99.90
24252;DHT22;12380;51.118;4.176;2023-04-24T11:34:50;12.50;99.90
24252;DHT22;12380;51.118;4.176;2023-04-24T11:37:18;12.30;99.90
24252;DHT22;12380;51.118;4.176;2023-04-24T11:39:44;12.30;99.90
24252;DHT22;12380;51.118;4.176;2023-04-24T11:42:10;12.10;99.90
24252;DHT22;12380;51.118;4.176;2023-04-24T11:44:35;12.50;99.90
24252;DHT22;12380;51.118;4.176;2023-04-24T11:47:06;13.00;99.90
24252;DHT22;12380;51.118;4.176;2023-04-24T11:49:33;13.30;99.90
24252;DHT22;12380;51.118;4.176;2023-04-24T11:52:01;14.10;99.90
24252;DHT22;12380;51.118;4.176;2023-04-24T11:54:27;14.70;99.90
24252;DHT22;12380;51.118;4.176;2023-04-24T11:56:53;15.50;99.90
24252;DHT22;12380;51.118;4.176;2023-04-24T11:59:21;15.70;99.90
24252;DHT22;12380;51.118;4.176;2023-04-24T12:01:47;16.00;99.90
24252;DHT22;12380;51.118;4.176;2023-04-24T12:04:13;15.40;99.90
24252;DHT22;12380;51.118;4.176;2023-04-24T12:06:39;15.00;99.90
24252;DHT22;12380;51.118;4.176;2023-04-24T12:09:04;14.50;99.90
24252;DHT22;12380;51.118;4.176;2023-04-24T12:11:33;14.60;99.90
24252;DHT22;12380;51.118;4.176;2023-04-24T12:14:09;15.20;99.90
24252;DHT22;12380;51.118;4.176;2023-04-24T12:16:34;14.70;99.90
24252;DHT22;12380;51.118;4.176;2023-04-24T12:19:01;14.10;99.90
24252;DHT22;12380;51.118;4.176;2023-04-24T12:21:27;13.40;99.90
24252;DHT22;12380;51.118;4.176;2023-04-24T12:23:55;13.20;99.90
24252;DHT22;12380;51.118;4.176;2023-04-24T12:26:21;13.20;99.90
24252;DHT22;12380;51.118;4.176;2023-04-24T12:28:48;13.20;99.90
24252;DHT22;12380;51.118;4.176;2023-04-24T12:31:16;13.10;99.90
24252;DHT22;12380;51.118;4.176;2023-04-24T12:33:42;13.60;99.90
24252;DHT22;12380;51.118;4.176;2023-04-24T12:36:11;14.50;99.90
24252;DHT22;12380;51.118;4.176;2023-04-24T12:38:42;15.30;99.90
24252;DHT22;12380;51.118;4.176;2023-04-24T12:41:10;15.50;99.90
24252;DHT22;12380;51.118;4.176;2023-04-24T12:43:36;15.80;99.90
24252;DHT22;12380;51.118;4.176;2023-04-24T12:46:04;15.50;99.90
24252;DHT22;12380;51.118;4.176;2023-04-24T12:48:30;15.00;99.90
24252;DHT22;12380;51.118;4.176;2023-04-24T12:50:58;15.50;99.90
24252;DHT22;12380;51.118;4.176;2023-04-24T12:53:26;16.10;99.90
24252;DHT22;12380;51.118;4.176;2023-04-24T12:55:53;16.30;99.90
24252;DHT22;12380;51.118;4.176;2023-04-24T12:58:19;16.80;99.90
24252;DHT22;12380;51.118;4.176;2023-04-24T13:00:45;16.60;99.90
24252;DHT22;12380;51.118;4.176;2023-04-24T13:03:11;15.80;99.90
24252;DHT22;12380;51.118;4.176;2023-04-24T13:05:37;14.90;99.90
24252;DHT22;12380;51.118;4.176;2023-04-24T13:08:02;14.50;99.90
24252;DHT22;12380;51.118;4.176;2023-04-24T13:10:32;14.30;99.90
24252;DHT22;12380;51.118;4.176;2023-04-24T13:12:59;14.20;99.90
24252;DHT22;12380;51.118;4.176;2023-04-24T13:15:26;14.40;99.90
24252;DHT22;12380;51.118;4.176;2023-04-24T13:17:52;14.70;99.90
24252;DHT22;12380;51.118;4.176;2023-04-24T13:20:17;15.10;99.90
24252;DHT22;12380;51.118;4.176;2023-04-24T13:22:43;15.30;99.90
24252;DHT22;12380;51.118;4.176;2023-04-24T13:25:09;15.60;99.90
24252;DHT22;12380;51.118;4.176;2023-04-24T13:27:35;15.80;99.90
24252;DHT22;12380;51.118;4.176;2023-04-24T13:30:05;16.10;99.90
24252;DHT22;12380;51.118;4.176;2023-04-24T13:32:31;16.50;99.90
24252;DHT22;12380;51.118;4.176;2023-04-24T13:35:03;16.20;99.90
24252;DHT22;12380;51.118;4.176;2023-04-24T13:37:28;16.30;99.90
24252;DHT22;12380;51.118;4.176;2023-04-24T13:39:54;16.50;99.90
24252;DHT22;12380;51.118;4.176;2023-04-24T13:42:19;16.80;99.90
24252;DHT22;12380;51.118;4.176;2023-04-24T13:44:45;16.80;99.90
24252;DHT22;12380;51.118;4.176;2023-04-24T13:47:11;16.70;99.90
24252;DHT22;12380;51.118;4.176;2023-04-24T13:49:37;16.50;99.90
24252;DHT22;12380;51.118;4.176;2023-04-24T13:52:03;16.90;99.90
24252;DHT22;12380;51.118;4.176;2023-04-24T13:54:28;17.50;99.90
24252;DHT22;12380;51.118;4.176;2023-04-24T13:56:57;16.90;99.90
24252;DHT22;12380;51.118;4.176;2023-04-24T13:59:23;16.20;99.90
24252;DHT22;12380;51.118;4.176;2023-04-24T14:01:48;15.90;99.90
24252;DHT22;12380;51.118;4.176;2023-04-24T14:04:14;15.90;99.90
24252;DHT22;12380;51.118;4.176;2023-04-24T14:06:40;15.70;99.90
24252;DHT22;12380;51.118;4.176;2023-04-24T14:09:06;15.80;99.90
24252;DHT22;12380;51.118;4.176;2023-04-24T14:11:31;15.90;99.90
24252;DHT22;12380;51.118;4.176;2023-04-24T14:13:57;16.30;99.90
24252;DHT22;12380;51.118;4.176;2023-04-24T14:16:22;16.00;99.90
24252;DHT22;12380;51.118;4.176;2023-04-24T14:18:48;16.30;99.90
24252;DHT22;12380;51.118;4.176;2023-04-24T14:21:13;16.30;99.90
24252;DHT22;12380;51.118;4.176;2023-04-24T14:23:39;16.70;99.90
24252;DHT22;12380;51.118;4.176;2023-04-24T14:26:05;17.10;99.90
24252;DHT22;12380;51.118;4.176;2023-04-24T14:28:30;16.30;99.90
24252;DHT22;12380;51.118;4.176;2023-04-24T14:30:58;16.20;99.90
24252;DHT22;12380;51.118;4.176;2023-04-24T14:33:23;15.90;99.90
24252;DHT22;12380;51.118;4.176;2023-04-24T14:35:49;15.70;99.90
24252;DHT22;12380;51.118;4.176;2023-04-24T14:38:14;15.20;99.90
24252;DHT22;12380;51.118;4.176;2023-04-24T14:40:40;14.90;99.90
24252;DHT22;12380;51.118;4.176;2023-04-24T14:43:06;14.70;99.90
24252;DHT22;12380;51.118;4.176;2023-04-24T14:45:32;15.10;99.90
24252;DHT22;12380;51.118;4.176;2023-04-24T14:47:57;15.60;99.90
24252;DHT22;12380;51.118;4.176;2023-04-24T14:50:23;15.70;99.90
24252;DHT22;12380;51.118;4.176;2023-04-24T14:52:53;15.10;99.90
24252;DHT22;12380;51.118;4.176;2023-04-24T14:55:19;14.50;99.90
24252;DHT22;12380;51.118;4.176;2023-04-24T14:57:45;14.50;99.90
24252;DHT22;12380;51.118;4.176;2023-04-24T15:00:10;14.20;99.90
24252;DHT22;12380;51.118;4.176;2023-04-24T15:02:38;14.40;99.90
24252;DHT22;12380;51.118;4.176;2023-04-24T15:05:09;14.50;99.90
24252;DHT22;12380;51.118;4.176;2023-04-24T15:07:37;14.00;99.90
24252;DHT22;12380;51.118;4.176;2023-04-24T15:10:03;13.80;99.90
24252;DHT22;12380;51.118;4.176;2023-04-24T15:12:29;13.90;99.90
24252;DHT22;12380;51.118;4.176;2023-04-24T15:14:55;13.20;99.90
24252;DHT22;12380;51.118;4.176;2023-04-24T15:17:20;13.20;99.90
24252;DHT22;12380;51.118;4.176;2023-04-24T15:19:49;13.40;99.90
24252;DHT22;12380;51.118;4.176;2023-04-24T15:22:14;13.50;99.90
24252;DHT22;12380;51.118;4.176;2023-04-24T15:24:42;13.60;99.90
24252;DHT22;12380;51.118;4.176;2023-04-24T15:27:10;13.50;99.90
24252;DHT22;12380;51.118;4.176;2023-04-24T15:29:36;13.90;99.90
24252;DHT22;12380;51.118;4.176;2023-04-24T15:32:02;13.80;99.90
24252;DHT22;12380;51.118;4.176;2023-04-24T15:34:27;13.60;99.90
24252;DHT22;12380;51.118;4.176;2023-04-24T15:36:53;13.50;99.90
24252;DHT22;12380;51.118;4.176;2023-04-24T15:39:21;13.50;99.90
24252;DHT22;12380;51.118;4.176;2023-04-24T15:41:47;13.40;99.90
24252;DHT22;12380;51.118;4.176;2023-04-24T15:44:13;13.00;99.90
24252;DHT22;12380;51.118;4.176;2023-04-24T15:46:38;13.20;99.90
24252;DHT22;12380;51.118;4.176;2023-04-24T15:49:06;13.10;99.90
24252;DHT22;12380;51.118;4.176;2023-04-24T15:51:32;13.40;99.90
24252;DHT22;12380;51.118;4.176;2023-04-24T15:53:57;13.50;99.90
24252;DHT22;12380;51.118;4.176;2023-04-24T15:56:23;13.50;99.90